createdAt,value
2022-09-10T00:01:00.304Z,10.25
2022-09-10T00:03:27.354Z,10.27
2022-09-10T00:05:54.067Z,10.27
2022-09-10T00:08:21.823Z,10.25
2022-09-10T00:10:50.625Z,10.23
2022-09-10T00:13:20.484Z,10.24
2022-09-10T00:15:50.335Z,10.25
2022-09-10T00:18:19.101Z,10.28
2022-09-10T00:20:52.327Z,10.25
2022-09-10T00:23:22.010Z,10.28
2022-09-10T00:25:49.341Z,10.29
2022-09-10T00:28:16.340Z,10.29
2022-09-10T00:30:45.538Z,10.29
2022-09-10T00:33:13.920Z,10.29
2022-09-10T00:35:40.975Z,10.29
2022-09-10T00:38:09.454Z,10.29
2022-09-10T00:40:38.156Z,10.29
2022-09-10T00:43:15.375Z,10.31
2022-09-10T00:45:44.045Z,10.27
2022-09-10T00:48:18.444Z,10.23
2022-09-10T00:50:48.600Z,10.25
2022-09-10T00:53:21.950Z,10.23
2022-09-10T00:55:53.914Z,10.21
2022-09-10T00:58:23.609Z,10.20
2022-09-10T01:00:55.011Z,10.22
2022-09-10T01:03:25.388Z,10.24
2022-09-10T01:05:52.623Z,10.27
2022-09-10T01:08:20.761Z,10.27
2022-09-10T01:10:59.747Z,10.26
2022-09-10T01:14:13.062Z,10.31
2022-09-10T01:16:56.963Z,10.27
2022-09-10T01:19:58.302Z,10.26
2022-09-10T01:22:32.506Z,10.28
2022-09-10T01:25:22.642Z,10.27
2022-09-10T01:27:53.766Z,10.27
2022-09-10T01:30:24.424Z,10.30
2022-09-10T01:33:06.483Z,10.31
2022-09-10T01:35:57.035Z,10.29
2022-09-10T01:38:31.770Z,10.34
2022-09-10T01:40:59.122Z,10.28
2022-09-10T01:43:29.026Z,10.33
2022-09-10T01:46:21.992Z,10.35
2022-09-10T01:49:13.877Z,10.34
2022-09-10T01:51:40.666Z,10.27
2022-09-10T01:54:11.453Z,10.33
2022-09-10T01:57:01.186Z,10.33
2022-09-10T01:59:37.338Z,10.32
2022-09-10T02:02:37.202Z,10.32
2022-09-10T02:05:06.313Z,10.33
2022-09-10T02:07:35.802Z,10.34
2022-09-10T02:10:06.289Z,10.35
2022-09-10T02:12:37.124Z,10.35
2022-09-10T02:15:28.730Z,10.41
2022-09-10T02:18:11.925Z,10.39
2022-09-10T02:20:39.487Z,10.36
2022-09-10T02:23:07.343Z,10.35
2022-09-10T02:25:37.383Z,10.39
2022-09-10T02:28:06.937Z,10.41
2022-09-10T02:30:33.720Z,10.45
2022-09-10T02:33:00.464Z,10.45
2022-09-10T02:35:27.310Z,10.43
2022-09-10T02:37:54.729Z,10.43
2022-09-10T02:40:21.561Z,10.44
2022-09-10T02:42:48.335Z,10.48
2022-09-10T02:45:20.633Z,10.49
2022-09-10T02:47:47.607Z,10.54
2022-09-10T02:50:16.021Z,10.56
2022-09-10T02:52:45.706Z,10.56
2022-09-10T02:55:13.962Z,10.55
2022-09-10T02:57:42.215Z,10.57
2022-09-10T03:00:10.016Z,10.60
2022-09-10T03:02:37.312Z,10.59
2022-09-10T03:05:05.010Z,10.56
2022-09-10T03:07:32.339Z,10.53
2022-09-10T03:09:59.064Z,10.60
2022-09-10T03:12:27.209Z,10.57
2022-09-10T03:14:53.980Z,10.57
2022-09-10T03:17:22.711Z,10.63
2022-09-10T03:19:49.985Z,10.62
2022-09-10T03:22:16.890Z,10.60
2022-09-10T03:24:43.607Z,10.66
2022-09-10T03:27:10.457Z,10.63
2022-09-10T03:29:37.306Z,10.66
2022-09-10T03:32:04.104Z,10.66
2022-09-10T03:34:31.041Z,10.69
2022-09-10T03:36:58.675Z,10.70
2022-09-10T03:39:25.508Z,10.70
2022-09-10T03:41:52.245Z,10.70
2022-09-10T03:44:19.763Z,10.74
2022-09-10T03:46:48.801Z,10.73
2022-09-10T03:49:17.703Z,10.75
2022-09-10T03:51:44.584Z,10.81
2022-09-10T03:54:14.018Z,10.83
2022-09-10T03:56:42.072Z,10.84
2022-09-10T03:59:08.834Z,10.88
2022-09-10T04:01:37.005Z,10.88
2022-09-10T04:04:06.236Z,10.91
2022-09-10T04:06:33.013Z,10.93
2022-09-10T04:09:01.286Z,10.97
2022-09-10T04:11:28.960Z,10.92
2022-09-10T04:13:57.683Z,10.96
2022-09-10T04:16:25.469Z,11.00
2022-09-10T04:18:52.373Z,10.95
2022-09-10T04:21:20.282Z,11.00
2022-09-10T04:23:54.143Z,11.01
2022-09-10T04:26:21.173Z,11.03
2022-09-10T04:28:49.910Z,11.03
2022-09-10T04:31:17.690Z,11.03
2022-09-10T04:33:45.361Z,11.08
2022-09-10T04:36:13.016Z,11.09
2022-09-10T04:38:41.730Z,11.14
2022-09-10T04:41:10.658Z,11.20
2022-09-10T04:43:37.956Z,11.23
2022-09-10T04:46:06.112Z,11.21
2022-09-10T04:48:35.101Z,11.29
2022-09-10T04:51:19.632Z,11.29
2022-09-10T04:53:52.246Z,11.29
2022-09-10T04:56:21.891Z,11.35
2022-09-10T04:58:49.286Z,11.35
2022-09-10T05:01:16.107Z,11.36
2022-09-10T05:03:44.871Z,11.39
2022-09-10T05:06:12.322Z,11.41
2022-09-10T05:08:39.764Z,11.33
2022-09-10T05:11:06.678Z,11.39
2022-09-10T05:13:33.644Z,11.47
2022-09-10T05:16:01.673Z,11.46
2022-09-10T05:18:30.288Z,11.44
2022-09-10T05:20:57.528Z,11.50
2022-09-10T05:23:24.370Z,11.53
2022-09-10T05:25:52.983Z,11.52
2022-09-10T05:28:20.858Z,11.55
2022-09-10T05:30:51.553Z,11.59
2022-09-10T05:33:22.098Z,11.61
2022-09-10T05:35:52.746Z,11.57
2022-09-10T05:38:21.188Z,11.59
2022-09-10T05:40:48.758Z,11.58
2022-09-10T05:43:15.491Z,11.61
2022-09-10T05:45:44.005Z,11.65
2022-09-10T05:48:10.868Z,11.66
2022-09-10T05:50:38.543Z,11.64
2022-09-10T05:53:05.688Z,11.63
2022-09-10T05:55:33.343Z,11.67
2022-09-10T05:58:00.729Z,11.66
2022-09-10T06:00:27.899Z,11.68
2022-09-10T06:03:00.297Z,11.64
2022-09-10T06:05:50.503Z,11.63
2022-09-10T06:08:23.717Z,11.65
2022-09-10T06:11:00.391Z,11.60
2022-09-10T06:13:30.300Z,11.63
2022-09-10T06:15:58.063Z,11.65
2022-09-10T06:18:27.446Z,11.61
2022-09-10T06:21:08.829Z,11.62
2022-09-10T06:23:39.254Z,11.62
2022-09-10T06:26:09.548Z,11.59
2022-09-10T06:28:37.511Z,11.63
2022-09-10T06:31:06.467Z,11.66
2022-09-10T06:33:35.314Z,11.66
2022-09-10T06:36:03.853Z,11.70
2022-09-10T06:38:33.763Z,11.65
2022-09-10T06:41:04.796Z,11.65
2022-09-10T06:43:38.683Z,11.59
2022-09-10T06:46:56.730Z,11.62
2022-09-10T06:49:11.734Z,11.64
2022-09-10T06:51:39.850Z,11.65
2022-09-10T06:54:08.687Z,11.65
2022-09-10T06:56:35.461Z,11.64
2022-09-10T06:59:04.062Z,11.68
2022-09-10T07:01:35.748Z,11.63
2022-09-10T07:04:02.857Z,11.65
2022-09-10T07:06:35.184Z,11.65
2022-09-10T07:09:10.750Z,11.70
2022-09-10T07:11:50.185Z,11.63
2022-09-10T07:14:18.114Z,11.65
2022-09-10T07:16:46.320Z,11.58
2022-09-10T07:19:15.170Z,11.62
2022-09-10T07:21:47.180Z,11.60
2022-09-10T07:24:15.785Z,11.60
2022-09-10T07:26:52.434Z,11.68
2022-09-10T07:29:19.555Z,11.73
2022-09-10T07:31:48.208Z,11.72
2022-09-10T07:34:20.497Z,11.72
2022-09-10T07:36:48.419Z,11.72
2022-09-10T07:39:15.540Z,11.76
2022-09-10T07:41:42.924Z,11.82
2022-09-10T07:44:12.511Z,11.83
2022-09-10T07:46:42.408Z,11.82
2022-09-10T07:49:12.151Z,11.82
2022-09-10T07:51:40.799Z,11.87
2022-09-10T07:54:07.670Z,11.87
2022-09-10T07:56:44.441Z,11.87
2022-09-10T07:59:13.799Z,11.90
2022-09-10T08:01:46.055Z,11.88
2022-09-10T08:04:15.372Z,11.95
2022-09-10T08:06:42.127Z,11.94
2022-09-10T08:09:09.508Z,11.96
2022-09-10T08:11:41.736Z,11.99
2022-09-10T08:14:13.356Z,11.97
2022-09-10T08:16:44.335Z,11.92
2022-09-10T08:19:15.017Z,11.98
2022-09-10T08:21:42.083Z,11.95
2022-09-10T08:24:10.540Z,11.97
2022-09-10T08:26:39.158Z,11.95
2022-09-10T08:29:06.955Z,11.89
2022-09-10T08:31:34.729Z,11.90
2022-09-10T08:34:11.515Z,11.91
2022-09-10T08:36:41.082Z,11.92
2022-09-10T08:39:08.578Z,11.98
2022-09-10T08:41:39.064Z,12.00
2022-09-10T08:44:21.317Z,12.06
2022-09-10T08:46:56.510Z,12.14
2022-09-10T08:49:34.096Z,12.10
2022-09-10T08:52:07.823Z,12.14
2022-09-10T08:54:40.265Z,12.11
2022-09-10T08:57:32.335Z,12.06
2022-09-10T09:00:01.596Z,12.08
2022-09-10T09:02:49.290Z,12.03
2022-09-10T09:05:23.763Z,11.97
2022-09-10T09:07:54.434Z,12.00
2022-09-10T09:10:50.742Z,12.02
2022-09-10T09:13:26.326Z,11.97
2022-09-10T09:16:05.552Z,11.92
2022-09-10T09:19:06.547Z,11.98
2022-09-10T09:21:45.981Z,11.93
2022-09-10T09:24:22.370Z,11.92
2022-09-10T09:26:57.468Z,11.93
2022-09-10T09:29:34.634Z,11.96
2022-09-10T09:32:05.950Z,11.92
2022-09-10T09:34:40.468Z,11.94
2022-09-10T09:37:18.350Z,11.93
2022-09-10T09:39:59.485Z,11.92
2022-09-10T09:42:46.700Z,11.95
2022-09-10T09:45:45.586Z,11.93
2022-09-10T09:48:18.284Z,12.01
2022-09-10T09:50:50.104Z,12.03
2022-09-10T09:53:26.086Z,12.05
2022-09-10T09:55:58.450Z,12.00
2022-09-10T09:58:26.339Z,12.02
2022-09-10T10:01:05.242Z,11.98
2022-09-10T10:03:54.501Z,11.96
2022-09-10T10:06:24.901Z,11.95
2022-09-10T10:09:02.973Z,12.02
2022-09-10T10:11:42.048Z,12.05
2022-09-10T10:14:31.444Z,12.07
2022-09-10T10:17:00.990Z,12.09
2022-09-10T10:19:40.058Z,12.10
2022-09-10T10:22:18.787Z,12.08
2022-09-10T10:24:48.522Z,12.05
2022-09-10T10:27:20.560Z,12.04
2022-09-10T10:30:02.826Z,11.98
2022-09-10T10:32:38.908Z,12.05
2022-09-10T10:35:24.459Z,12.10
2022-09-10T10:38:18.838Z,12.12
2022-09-10T10:40:56.728Z,12.24
2022-09-10T10:43:44.659Z,12.35
2022-09-10T10:46:22.598Z,12.31
2022-09-10T10:49:15.835Z,12.41
2022-09-10T10:51:48.335Z,12.50
2022-09-10T10:54:37.473Z,12.59
2022-09-10T10:57:31.512Z,12.65
2022-09-10T11:00:14.004Z,12.72
2022-09-10T11:03:12.930Z,12.82
2022-09-10T11:05:45.563Z,12.67
2022-09-10T11:08:19.512Z,12.78
2022-09-10T11:11:00.456Z,12.84
2022-09-10T11:13:36.759Z,12.81
2022-09-10T11:16:06.376Z,12.92
2022-09-10T11:18:48.762Z,12.91
2022-09-10T11:21:18.540Z,12.94
2022-09-10T11:23:49.575Z,13.02
2022-09-10T11:26:25.047Z,13.01
2022-09-10T11:28:52.462Z,13.03
2022-09-10T11:31:31.576Z,12.97
2022-09-10T11:34:05.450Z,13.03
2022-09-10T11:36:46.663Z,13.08
2022-09-10T11:39:31.973Z,13.13
2022-09-10T11:42:03.443Z,13.12
2022-09-10T11:45:00.963Z,13.17
2022-09-10T11:47:33.329Z,13.13
2022-09-10T11:50:01.073Z,13.16
2022-09-10T11:52:31.428Z,13.09
2022-09-10T11:54:58.655Z,13.05
2022-09-10T11:57:38.869Z,12.99
2022-09-10T12:00:09.938Z,13.00
2022-09-10T12:02:39.480Z,12.95
2022-09-10T12:05:40.509Z,12.83
2022-09-10T12:08:10.596Z,12.69
2022-09-10T12:11:25.007Z,12.63
2022-09-10T12:13:52.820Z,12.64
2022-09-10T12:16:51.910Z,12.45
2022-09-10T12:19:24.498Z,12.44
2022-09-10T12:21:55.131Z,12.44
2022-09-10T12:24:32.093Z,12.38
2022-09-10T12:27:00.659Z,12.39
2022-09-10T12:29:31.273Z,12.38
2022-09-10T12:32:28.600Z,12.37
2022-09-10T12:35:31.235Z,12.40
2022-09-10T12:38:43.688Z,12.40
2022-09-10T12:41:14.902Z,12.36
2022-09-10T12:43:41.679Z,12.38
2022-09-10T12:46:08.641Z,12.35
2022-09-10T12:48:40.038Z,12.38
2022-09-10T12:51:19.196Z,12.32
2022-09-10T12:54:01.987Z,12.38
2022-09-10T12:56:50.058Z,12.39
2022-09-10T12:59:19.932Z,12.37
2022-09-10T13:01:51.518Z,12.43
2022-09-10T13:04:29.987Z,12.42
2022-09-10T13:07:21.634Z,12.40
2022-09-10T13:10:01.012Z,12.37
2022-09-10T13:12:29.184Z,12.36
2022-09-10T13:14:57.736Z,12.41
2022-09-10T13:17:57.432Z,12.39
2022-09-10T13:20:26.880Z,12.43
2022-09-10T13:23:04.294Z,12.42
2022-09-10T13:25:37.523Z,12.39
2022-09-10T13:28:36.984Z,12.34
2022-09-10T13:31:11.346Z,12.40
2022-09-10T13:33:58.858Z,12.36
2022-09-10T13:36:37.507Z,12.30
2022-09-10T13:39:41.355Z,12.36
2022-09-10T13:42:36.029Z,12.35
2022-09-10T13:45:17.682Z,12.34
2022-09-10T13:48:14.888Z,12.39
2022-09-10T13:51:18.949Z,12.39
2022-09-10T13:53:49.111Z,12.45
2022-09-10T13:56:26.747Z,12.41
2022-09-10T13:59:02.124Z,12.47
2022-09-10T14:01:49.301Z,12.51
2022-09-10T14:04:26.587Z,12.52
2022-09-10T14:07:13.138Z,12.52
2022-09-10T14:09:46.514Z,12.52
2022-09-10T14:12:14.962Z,12.61
2022-09-10T14:14:51.041Z,12.62
2022-09-10T14:17:25.714Z,12.65
2022-09-10T14:19:59.295Z,12.66
2022-09-10T14:22:27.086Z,12.65
2022-09-10T14:24:56.185Z,12.67
2022-09-10T14:27:22.850Z,12.69
2022-09-10T14:29:50.423Z,12.70
2022-09-10T14:32:22.893Z,12.72
2022-09-10T14:34:49.651Z,12.73
2022-09-10T14:37:39.590Z,12.72
2022-09-10T14:40:19.383Z,12.72
2022-09-10T14:42:48.939Z,12.69
2022-09-10T14:45:46.566Z,12.67
2022-09-10T14:48:38.746Z,12.63
2022-09-10T14:51:37.723Z,12.69
2022-09-10T14:54:04.473Z,12.70
2022-09-10T14:56:35.781Z,12.70
2022-09-10T14:59:23.162Z,12.74
2022-09-10T15:01:50.161Z,12.71
2022-09-10T15:04:26.725Z,12.72
2022-09-10T15:06:58.574Z,12.69
2022-09-10T15:09:27.501Z,12.72
2022-09-10T15:11:59.098Z,12.78
2022-09-10T15:14:26.142Z,12.73
2022-09-10T15:16:52.953Z,12.75
2022-09-10T15:19:20.651Z,12.79
2022-09-10T15:21:48.243Z,12.82
2022-09-10T15:24:20.707Z,12.81
2022-09-10T15:26:48.605Z,12.85
2022-09-10T15:29:16.129Z,12.81
2022-09-10T15:31:43.762Z,12.82
2022-09-10T15:34:11.394Z,12.79
2022-09-10T15:36:40.448Z,12.78
2022-09-10T15:39:08.707Z,12.84
2022-09-10T15:41:35.579Z,12.78
2022-09-10T15:44:03.329Z,12.79
2022-09-10T15:46:30.527Z,12.84
2022-09-10T15:48:59.524Z,12.83
2022-09-10T15:51:26.960Z,12.83
2022-09-10T15:53:54.661Z,12.83
2022-09-10T15:56:24.869Z,12.85
2022-09-10T15:58:55.143Z,12.89
2022-09-10T16:01:24.284Z,12.92
2022-09-10T16:03:55.447Z,12.95
2022-09-10T16:06:23.941Z,12.97
2022-09-10T16:09:01.975Z,12.97
2022-09-10T16:11:33.925Z,13.00
2022-09-10T16:14:05.175Z,13.01
2022-09-10T16:16:33.324Z,13.00
2022-09-10T16:19:00.830Z,12.96
2022-09-10T16:21:32.945Z,13.00
2022-09-10T16:24:01.020Z,12.96
2022-09-10T16:26:30.950Z,12.89
2022-09-10T16:29:02.821Z,12.96
2022-09-10T16:31:32.445Z,12.96
2022-09-10T16:34:02.570Z,12.93
2022-09-10T16:36:33.672Z,12.88
2022-09-10T16:39:05.104Z,12.88
2022-09-10T16:41:33.081Z,12.90
2022-09-10T16:44:00.651Z,12.88
2022-09-10T16:46:28.163Z,12.89
2022-09-10T16:48:55.931Z,12.92
2022-09-10T16:51:24.798Z,12.96
2022-09-10T16:54:03.060Z,13.03
2022-09-10T16:56:50.761Z,12.99
2022-09-10T16:59:25.866Z,12.94
2022-09-10T17:01:53.269Z,12.97
2022-09-10T17:04:28.333Z,12.98
2022-09-10T17:06:57.001Z,13.01
2022-09-10T17:09:24.898Z,13.07
2022-09-10T17:11:51.981Z,13.10
2022-09-10T17:14:19.248Z,13.07
2022-09-10T17:16:47.970Z,13.08
2022-09-10T17:19:18.498Z,13.12
2022-09-10T17:21:55.173Z,13.19
2022-09-10T17:24:23.908Z,13.14
2022-09-10T17:26:51.542Z,13.20
2022-09-10T17:29:22.309Z,13.22
2022-09-10T17:31:52.115Z,13.28
2022-09-10T17:34:24.520Z,13.30
2022-09-10T17:36:51.912Z,13.35
2022-09-10T17:39:18.971Z,13.37
2022-09-10T17:41:46.157Z,13.40
2022-09-10T17:44:13.661Z,13.43
2022-09-10T17:46:42.925Z,13.41
2022-09-10T17:49:12.401Z,13.46
2022-09-10T17:51:39.082Z,13.41
2022-09-10T17:54:05.863Z,13.45
2022-09-10T17:56:32.535Z,13.53
2022-09-10T17:59:04.152Z,13.52
2022-09-10T18:01:37.849Z,13.52
2022-09-10T18:04:06.009Z,13.57
2022-09-10T18:06:35.668Z,13.60
2022-09-10T18:09:03.910Z,13.56
2022-09-10T18:11:32.874Z,13.60
2022-09-10T18:14:00.055Z,13.62
2022-09-10T18:16:29.434Z,13.72
2022-09-10T18:19:01.871Z,13.73
2022-09-10T18:21:31.094Z,13.71
2022-09-10T18:24:00.530Z,13.78
2022-09-10T18:26:29.991Z,13.73
2022-09-10T18:29:04.675Z,13.79
2022-09-10T18:31:43.686Z,13.79
2022-09-10T18:34:22.622Z,13.79
2022-09-10T18:36:55.319Z,13.81
2022-09-10T18:39:23.294Z,13.83
2022-09-10T18:41:50.069Z,13.82
2022-09-10T18:44:23.912Z,13.79
2022-09-10T18:46:52.792Z,13.82
2022-09-10T18:49:21.793Z,13.84
2022-09-10T18:51:52.378Z,13.86
2022-09-10T18:54:21.020Z,13.87
2022-09-10T18:56:49.231Z,13.85
2022-09-10T18:59:20.631Z,13.77
2022-09-10T19:01:48.890Z,13.81
2022-09-10T19:04:24.562Z,13.79
2022-09-10T19:06:52.242Z,13.75
2022-09-10T19:09:20.555Z,13.82
2022-09-10T19:11:49.484Z,13.78
2022-09-10T19:14:22.133Z,13.76
2022-09-10T19:16:51.252Z,13.77
2022-09-10T19:19:23.307Z,13.81
2022-09-10T19:21:53.566Z,13.70
2022-09-10T19:24:32.872Z,13.76
2022-09-10T19:27:00.367Z,13.79
2022-09-10T19:29:27.290Z,13.77
2022-09-10T19:31:54.800Z,13.65
2022-09-10T19:34:22.640Z,13.74
2022-09-10T19:36:49.493Z,13.75
2022-09-10T19:39:17.297Z,13.73
2022-09-10T19:41:45.423Z,13.60
2022-09-10T19:44:14.128Z,13.72
2022-09-10T19:46:42.553Z,13.74
2022-09-10T19:49:10.194Z,13.70
2022-09-10T19:51:38.678Z,13.72
2022-09-10T19:54:06.823Z,13.70
2022-09-10T19:56:40.067Z,13.74
2022-09-10T19:59:10.004Z,13.69
2022-09-10T20:01:40.159Z,13.71
2022-09-10T20:04:09.699Z,13.65
2022-09-10T20:06:37.337Z,13.60
2022-09-10T20:09:05.713Z,13.59
2022-09-10T20:11:35.319Z,13.48
2022-09-10T20:14:07.884Z,13.47
2022-09-10T20:16:39.659Z,13.44
2022-09-10T20:19:07.600Z,13.45
2022-09-10T20:21:35.484Z,13.40
2022-09-10T20:24:02.245Z,13.36
2022-09-10T20:26:34.288Z,13.29
2022-09-10T20:29:06.842Z,13.34
2022-09-10T20:31:36.021Z,13.29
2022-09-10T20:34:05.352Z,13.30
2022-09-10T20:36:33.509Z,13.29
2022-09-10T20:39:00.362Z,13.27
2022-09-10T20:41:30.721Z,13.21
2022-09-10T20:43:59.449Z,13.22
2022-09-10T20:46:27.890Z,13.23
2022-09-10T20:48:55.387Z,13.21
2022-09-10T20:51:22.350Z,13.19
2022-09-10T20:53:49.097Z,13.15
2022-09-10T20:56:19.566Z,13.16
2022-09-10T20:58:46.896Z,13.17
2022-09-10T21:01:20.290Z,13.10
2022-09-10T21:03:49.530Z,13.14
2022-09-10T21:06:21.420Z,13.20
2022-09-10T21:08:48.806Z,13.10
2022-09-10T21:11:18.224Z,13.03
2022-09-10T21:13:46.066Z,13.07
2022-09-10T21:16:15.787Z,13.08
2022-09-10T21:18:48.764Z,13.06
2022-09-10T21:21:20.774Z,13.04
2022-09-10T21:23:50.227Z,12.97
2022-09-10T21:26:20.713Z,12.98
2022-09-10T21:28:48.273Z,13.04
2022-09-10T21:31:15.083Z,13.07
2022-09-10T21:33:43.380Z,13.03
2022-09-10T21:36:18.204Z,13.05
2022-09-10T21:38:55.858Z,13.04
2022-09-10T21:41:34.227Z,13.03
2022-09-10T21:44:03.066Z,12.97
2022-09-10T21:46:30.275Z,12.94
2022-09-10T21:48:57.119Z,12.92
2022-09-10T21:51:24.201Z,12.99
2022-09-10T21:53:55.748Z,12.95
2022-09-10T21:56:23.867Z,12.89
2022-09-10T21:58:50.777Z,12.93
2022-09-10T22:01:20.928Z,12.93
2022-09-10T22:03:49.185Z,12.96
2022-09-10T22:06:35.376Z,12.95
2022-09-10T22:09:08.242Z,12.97
2022-09-10T22:11:39.371Z,13.00
2022-09-10T22:14:20.971Z,12.85
2022-09-10T22:16:47.943Z,12.93
2022-09-10T22:19:18.170Z,12.89
2022-09-10T22:21:45.767Z,12.91
2022-09-10T22:24:14.688Z,12.94
2022-09-10T22:26:43.889Z,12.91
2022-09-10T22:29:12.493Z,12.94
2022-09-10T22:31:39.476Z,13.01
2022-09-10T22:34:08.685Z,12.97
2022-09-10T22:36:38.052Z,13.03
2022-09-10T22:39:06.282Z,13.03
2022-09-10T22:41:34.832Z,13.04
2022-09-10T22:44:02.519Z,13.06
2022-09-10T22:46:30.059Z,13.03
2022-09-10T22:48:56.947Z,13.04
2022-09-10T22:51:26.815Z,12.89
2022-09-10T22:53:55.301Z,13.00
2022-09-10T22:56:23.784Z,13.04
2022-09-10T22:58:53.112Z,13.02
2022-09-10T23:01:22.855Z,12.96
2022-09-10T23:03:50.213Z,12.96
2022-09-10T23:06:19.544Z,13.03
2022-09-10T23:08:50.281Z,13.03
2022-09-10T23:11:29.439Z,13.04
2022-09-10T23:13:59.387Z,13.01
2022-09-10T23:16:38.232Z,13.05
2022-09-10T23:19:07.579Z,13.03
2022-09-10T23:21:35.413Z,13.06
2022-09-10T23:24:04.974Z,13.02
2022-09-10T23:26:31.875Z,13.07
2022-09-10T23:29:00.361Z,12.95
2022-09-10T23:31:28.985Z,13.05
2022-09-10T23:34:01.328Z,13.00
2022-09-10T23:36:33.716Z,12.96
2022-09-10T23:39:04.130Z,13.03
2022-09-10T23:41:30.921Z,12.96
2022-09-10T23:43:57.640Z,12.99
2022-09-10T23:46:25.090Z,13.10
2022-09-10T23:48:52.112Z,13.08
2022-09-10T23:51:20.455Z,13.11
2022-09-10T23:53:48.839Z,13.19
2022-09-10T23:56:18.364Z,13.14
2022-09-10T23:58:45.726Z,13.15
